Time;durP1;ratioP1;P1;durP2;ratioP2;P2;SDS_P1;SDS_P2;PMS_P1;PMS_P2;Temp;Humidity;BMP_temperature;BMP_pressure;BME280_temperature;BME280_humidity;BME280_pressure;Samples;Min_cycle;Max_cycle;Signal;HPM_P1;HPM_P2
2023/11/28 00:01:37;;;;;;;7.80;4.20;;;;;;;0.76;48.33;93250.94;4916511;29;20023;-76
2023/11/28 00:04:03;;;;;;;8.60;4.90;;;;;;;0.73;48.24;93243.66;4920570;28;20067;-75
2023/11/28 00:06:28;;;;;;;8.93;4.53;;;;;;;0.49;48.80;93216.47;4914188;28;20039;-77
2023/11/28 00:08:54;;;;;;;8.93;5.60;;;;;;;0.69;48.58;93226.88;4921857;28;20434;-75
2023/11/28 00:11:23;;;;;;;8.93;5.45;;;;;;;0.54;48.38;93216.47;4918374;28;20508;-76
2023/11/28 00:13:49;;;;;;;5.45;4.32;;;;;;;0.74;48.09;93226.88;4936404;28;20495;-76
2023/11/28 00:16:15;;;;;;;11.77;6.07;;;;;;;0.71;48.77;93222.19;4919918;29;20046;-74
2023/11/28 00:18:41;;;;;;;7.05;5.40;;;;;;;0.66;48.54;93203.88;4920119;28;20039;-76
2023/11/28 00:21:06;;;;;;;5.00;3.88;;;;;;;0.68;48.99;93204.41;4914761;29;20043;-76
2023/11/28 00:23:32;;;;;;;5.93;3.15;;;;;;;0.47;49.64;93189.78;4918070;29;20043;-76
2023/11/28 00:25:57;;;;;;;4.25;3.20;;;;;;;0.43;49.38;93182.75;4922157;28;20462;-76
2023/11/28 00:28:25;;;;;;;6.38;4.00;;;;;;;0.43;49.80;93182.75;4916927;29;20382;-76
2023/11/28 00:30:54;;;;;;;6.82;3.55;;;;;;;0.31;49.53;93160.25;4922205;29;20044;-76
2023/11/28 00:33:20;;;;;;;7.07;3.22;;;;;;;0.46;50.11;93193.44;4917085;28;20035;-75
2023/11/28 00:35:46;;;;;;;4.53;4.05;;;;;;;0.28;50.67;93178.31;4917498;28;20081;-75
2023/11/28 00:38:12;;;;;;;4.80;3.28;;;;;;;0.37;50.51;93187.19;4919482;28;20131;-75
2023/11/28 00:40:40;;;;;;;7.65;3.40;;;;;;;0.28;50.71;93165.25;4915924;29;20024;-76
2023/11/28 00:43:06;;;;;;;5.60;4.10;;;;;;;0.36;50.22;93173.31;4935167;28;20055;-75
2023/11/28 00:45:31;;;;;;;8.02;3.35;;;;;;;0.43;49.60;93167.81;4921241;28;20027;-76
2023/11/28 00:47:57;;;;;;;4.63;4.10;;;;;;;0.24;50.25;93153.75;4923062;29;20061;-75
2023/11/28 00:50:22;;;;;;;5.30;4.50;;;;;;;0.09;50.60;93156.38;4920292;28;20143;-76
2023/11/28 00:52:48;;;;;;;7.13;3.95;;;;;;;0.22;50.15;93158.44;4927321;28;20031;-75
2023/11/28 00:55:15;;;;;;;5.28;4.30;;;;;;;0.07;50.68;93171.53;4922567;29;20032;-75
2023/11/28 00:57:42;;;;;;;4.60;3.70;;;;;;;-0.07;50.85;93172.09;4922343;28;20158;-76
2023/11/28 01:00:08;;;;;;;7.70;5.22;;;;;;;-0.03;50.62;93148.03;4917371;28;20051;-76
2023/11/28 01:02:34;;;;;;;7.22;4.22;;;;;;;0.19;50.33;93145.91;4917413;29;20055;-76
2023/11/28 01:05:01;;;;;;;5.28;4.18;;;;;;;0.12;51.48;93148.78;4920679;28;20036;-75
2023/11/28 01:07:26;;;;;;;5.55;3.55;;;;;;;0.16;51.05;93141.19;4921565;29;20024;-75
2023/11/28 01:09:52;;;;;;;6.97;3.83;;;;;;;0.11;51.40;93160.28;4920483;28;20526;-75
2023/11/28 01:12:19;;;;;;;5.97;3.78;;;;;;;0.20;50.99;93166.53;4922455;28;20039;-75
2023/11/28 01:14:45;;;;;;;5.25;3.15;;;;;;;0.23;50.83;93152.97;4921613;28;20036;-75
2023/11/28 01:17:11;;;;;;;4.50;3.10;;;;;;;0.23;50.78;93139.88;4912491;29;20055;-75
2023/11/28 01:19:38;;;;;;;4.82;3.55;;;;;;;0.18;51.17;93142.50;4922293;29;20023;-76
2023/11/28 01:22:04;;;;;;;3.40;3.03;;;;;;;0.23;51.18;93123.41;4922677;28;20043;-75
2023/11/28 01:24:29;;;;;;;5.80;3.80;;;;;;;0.33;51.19;93141.69;4920842;28;20419;-76
2023/11/28 01:26:55;;;;;;;5.97;3.47;;;;;;;0.17;50.69;93133.09;4925051;28;20538;-76
2023/11/28 01:29:21;;;;;;;6.18;3.78;;;;;;;0.18;50.83;93139.91;4920056;28;20439;-75
2023/11/28 01:31:46;;;;;;;6.35;3.22;;;;;;;0.25;51.22;93126.56;4923250;28;20396;-76
2023/11/28 01:34:13;;;;;;;3.90;2.90;;;;;;;0.24;51.14;93112.69;4924942;29;20111;-76
2023/11/28 01:36:43;;;;;;;4.50;2.60;;;;;;;0.35;51.67;93114.22;4925508;28;20044;-75
2023/11/28 01:39:12;;;;;;;4.30;3.28;;;;;;;0.32;51.87;93082.56;4926030;28;20066;-76
2023/11/28 01:41:38;;;;;;;4.63;3.40;;;;;;;0.44;52.40;93098.75;4923829;28;20039;-75
2023/11/28 01:44:05;;;;;;;4.40;3.03;;;;;;;0.48;52.25;93104.25;4926072;28;20043;-75
2023/11/28 01:46:35;;;;;;;4.82;3.00;;;;;;;0.46;51.63;93094.03;4925095;29;20041;-75
2023/11/28 01:49:02;;;;;;;3.13;2.83;;;;;;;0.71;51.84;93107.03;4925380;28;20079;-76
2023/11/28 01:51:28;;;;;;;4.28;2.83;;;;;;;0.61;51.40;93086.13;4925113;29;20043;-75
2023/11/28 01:53:56;;;;;;;5.90;3.22;;;;;;;0.85;51.09;93095.94;4926262;28;20032;-75
2023/11/28 01:56:23;;;;;;;6.70;3.92;;;;;;;0.86;51.77;93100.94;4923598;29;20126;-76
2023/11/28 01:58:49;;;;;;;4.90;3.55;;;;;;;0.78;51.46;93081.34;4914200;28;20119;-76
2023/11/28 02:01:16;;;;;;;4.45;3.40;;;;;;;0.77;51.32;93085.00;4925462;29;20599;-76
2023/11/28 02:03:42;;;;;;;5.35;3.35;;;;;;;0.39;51.34;93036.00;4925738;28;20059;-76
2023/11/28 02:06:09;;;;;;;4.85;3.88;;;;;;;0.60;51.68;93074.09;4923955;28;20078;-76
2023/11/28 02:08:34;;;;;;;7.50;4.28;;;;;;;0.47;51.94;93043.28;4921037;28;20353;-75
2023/11/28 02:11:01;;;;;;;4.20;3.67;;;;;;;0.71;52.04;93048.66;4926078;28;20103;-76
2023/11/28 02:13:26;;;;;;;5.68;4.07;;;;;;;0.85;52.19;93054.84;4921804;29;20027;-75
2023/11/28 02:15:54;;;;;;;6.70;4.60;;;;;;;0.75;51.22;93063.53;4925100;28;20055;-76
2023/11/28 02:18:20;;;;;;;8.40;4.25;;;;;;;0.38;51.98;93075.50;4921147;28;20532;-76
2023/11/28 02:20:45;;;;;;;8.88;5.07;;;;;;;0.28;52.52;93061.41;4926732;29;20051;-75
2023/11/28 02:23:11;;;;;;;7.53;5.20;;;;;;;0.32;52.74;93061.66;4923026;28;20198;-76
2023/11/28 02:25:46;;;;;;;7.75;5.25;;;;;;;0.37;52.10;93053.78;4925391;29;20129;-75
2023/11/28 02:28:24;;;;;;;6.20;4.70;;;;;;;0.55;51.78;93057.63;4906152;29;20036;-75
2023/11/28 02:30:53;;;;;;;9.43;5.15;;;;;;;0.43;52.21;93044.09;4924245;29;20040;-75
2023/11/28 02:33:19;;;;;;;6.75;4.40;;;;;;;0.44;51.84;93025.53;4935551;28;20078;-75
2023/11/28 02:35:45;;;;;;;8.07;4.70;;;;;;;0.47;51.99;93005.88;4925621;28;20114;-75
2023/11/28 02:38:14;;;;;;;7.60;4.88;;;;;;;0.20;53.16;93008.88;4922609;28;20594;-76
2023/11/28 02:40:39;;;;;;;7.97;4.75;;;;;;;0.58;53.32;93049.25;4923950;28;20486;-75
2023/11/28 02:43:05;;;;;;;6.50;4.63;;;;;;;0.62;52.88;93024.91;4924917;29;20026;-76
2023/11/28 02:45:31;;;;;;;6.97;5.05;;;;;;;0.79;52.42;93035.78;4922616;28;20044;-76
2023/11/28 02:47:57;;;;;;;7.20;5.22;;;;;;;0.87;51.91;93036.25;4924395;29;20263;-76
2023/11/28 02:50:22;;;;;;;9.52;4.05;;;;;;;0.74;52.42;93016.72;4923401;28;20458;-76
2023/11/28 02:52:48;;;;;;;8.30;4.90;;;;;;;0.97;52.57;93023.91;4923953;28;20071;-76
2023/11/28 02:55:13;;;;;;;7.13;5.53;;;;;;;0.87;52.19;93031.03;4923008;29;20024;-75
2023/11/28 02:57:39;;;;;;;5.95;4.45;;;;;;;0.93;52.08;93006.38;4923555;29;20091;-75
2023/11/28 03:00:05;;;;;;;7.03;5.00;;;;;;;1.08;52.83;93022.75;4923700;28;20050;-76
2023/11/28 03:02:35;;;;;;;5.63;4.75;;;;;;;1.11;52.60;93008.34;4923563;28;20056;-76
2023/11/28 03:05:01;;;;;;;8.07;5.00;;;;;;;1.19;52.33;93023.47;4924934;28;20056;-76
2023/11/28 03:07:26;;;;;;;7.22;4.68;;;;;;;0.98;52.63;92980.97;4924598;29;20031;-74
2023/11/28 03:09:52;;;;;;;7.07;5.30;;;;;;;1.05;52.05;92991.09;4922192;29;20043;-75
2023/11/28 03:12:18;;;;;;;7.05;4.97;;;;;;;1.06;51.15;92982.97;4922791;29;20494;-75
2023/11/28 03:14:43;;;;;;;6.85;4.20;;;;;;;1.09;51.99;93016.47;4924430;28;20052;-76
2023/11/28 03:17:09;;;;;;;6.70;4.80;;;;;;;1.10;52.47;93014.63;4923356;28;20091;-76
2023/11/28 03:19:36;;;;;;;5.95;4.45;;;;;;;1.19;52.18;92990.19;4923704;29;20068;-75
2023/11/28 03:22:04;;;;;;;10.45;4.45;;;;;;;1.05;52.13;93009.44;4924313;28;20046;-75
2023/11/28 03:24:32;;;;;;;5.28;4.18;;;;;;;1.20;52.50;92976.06;4921859;29;20046;-76
2023/11/28 03:26:57;;;;;;;8.07;4.63;;;;;;;0.98;52.82;92980.97;4922296;29;20028;-76
2023/11/28 03:29:23;;;;;;;7.28;4.50;;;;;;;1.03;52.83;92975.69;4919133;28;20090;-76
2023/11/28 03:31:48;;;;;;;8.60;4.97;;;;;;;1.21;53.03;92974.22;4923053;28;20098;-75
2023/11/28 03:34:14;;;;;;;6.45;4.82;;;;;;;1.24;52.79;92957.94;4912135;29;20038;-75
2023/11/28 03:36:39;;;;;;;6.70;4.82;;;;;;;1.13;52.93;92946.00;4913588;29;20476;-76
2023/11/28 03:39:05;;;;;;;6.13;5.15;;;;;;;1.19;52.50;92960.59;4921760;28;20070;-76
2023/11/28 03:41:32;;;;;;;5.20;4.50;;;;;;;1.24;52.99;92950.09;4920706;29;20044;-76
2023/11/28 03:43:58;;;;;;;6.35;4.80;;;;;;;1.31;53.10;92953.19;4924002;28;20479;-75
2023/11/28 03:46:24;;;;;;;7.70;5.75;;;;;;;1.28;52.83;92950.34;4923433;29;20040;-76
2023/11/28 03:48:49;;;;;;;6.57;5.35;;;;;;;1.18;53.11;92938.13;4921020;28;20452;-75
2023/11/28 03:51:15;;;;;;;8.50;5.05;;;;;;;1.19;53.35;92952.75;4922669;29;20036;-75
2023/11/28 03:53:40;;;;;;;6.10;4.90;;;;;;;1.29;53.17;92976.22;4923369;28;20062;-76
2023/11/28 03:56:09;;;;;;;8.82;6.40;;;;;;;1.27;53.05;92941.69;4923482;28;20040;-75
2023/11/28 03:58:35;;;;;;;6.90;4.82;;;;;;;1.42;52.67;92961.72;4923630;29;20038;-75
2023/11/28 04:01:02;;;;;;;9.25;5.18;;;;;;;1.50;52.71;92961.91;4922152;28;20040;-75
2023/11/28 04:03:28;;;;;;;8.75;5.90;;;;;;;1.53;52.54;92945.63;4922920;28;20048;-76
2023/11/28 04:05:55;;;;;;;9.25;5.80;;;;;;;1.48;52.81;92937.03;4922408;28;20040;-75
2023/11/28 04:08:20;;;;;;;9.38;5.43;;;;;;;1.56;52.94;92946.91;4921577;28;20051;-76
2023/11/28 04:10:46;;;;;;;8.88;5.70;;;;;;;1.46;52.74;92934.69;4920315;28;20038;-76
2023/11/28 04:13:11;;;;;;;6.93;5.35;;;;;;;1.48;53.23;92937.81;4919504;29;20028;-76
2023/11/28 04:15:38;;;;;;;9.25;6.00;;;;;;;1.39;53.19;92938.69;4923435;28;20090;-76
2023/11/28 04:18:04;;;;;;;8.38;5.63;;;;;;;1.31;53.32;92921.75;4920022;28;20465;-75
2023/11/28 04:20:30;;;;;;;10.15;6.20;;;;;;;1.32;52.74;92923.31;4923878;28;20043;-75
2023/11/28 04:22:55;;;;;;;7.85;5.30;;;;;;;1.04;53.05;92905.75;4918823;28;20090;-75
2023/11/28 04:25:23;;;;;;;9.73;6.80;;;;;;;1.28;52.81;92927.50;4924518;29;20055;-76
2023/11/28 04:27:49;;;;;;;9.60;7.65;;;;;;;1.22;52.99;92923.41;4921752;28;20056;-74
2023/11/28 04:30:14;;;;;;;9.35;6.10;;;;;;;1.34;53.35;92931.66;4921942;29;20159;-76
2023/11/28 04:32:40;;;;;;;9.05;6.65;;;;;;;1.07;53.26;92910.44;4920992;28;20574;-76
2023/11/28 04:35:06;;;;;;;7.10;5.72;;;;;;;1.02;53.20;92897.41;4923340;28;20039;-76
2023/11/28 04:37:32;;;;;;;9.05;6.15;;;;;;;1.27;52.76;92910.25;4921729;29;20511;-76
2023/11/28 04:39:57;;;;;;;7.60;5.90;;;;;;;1.39;52.84;92910.66;4923697;28;20122;-76
2023/11/28 04:42:22;;;;;;;10.35;6.25;;;;;;;1.46;52.91;92900.63;4922747;28;20067;-75
2023/11/28 04:44:48;;;;;;;7.97;6.10;;;;;;;1.33;52.95;92879.53;4921701;28;20046;-74
2023/11/28 04:47:13;;;;;;;8.40;5.82;;;;;;;1.27;52.94;92852.63;4921355;28;20035;-76
2023/11/28 04:49:39;;;;;;;9.13;5.85;;;;;;;1.47;53.35;92867.34;4921790;28;20032;-76
2023/11/28 04:52:04;;;;;;;9.15;6.78;;;;;;;1.01;53.60;92796.34;4923274;29;20056;-76
2023/11/28 04:54:30;;;;;;;10.35;6.90;;;;;;;1.45;53.86;92869.47;4921629;28;20032;-75
2023/11/28 04:56:55;;;;;;;8.63;6.75;;;;;;;1.26;54.06;92861.53;4921043;28;20043;-75
2023/11/28 04:59:21;;;;;;;11.05;6.80;;;;;;;1.36;54.35;92858.03;4936037;28;20052;-76
2023/11/28 05:01:47;;;;;;;9.65;7.18;;;;;;;1.48;54.48;92869.69;4935391;28;20035;-74
2023/11/28 05:04:13;;;;;;;9.18;7.60;;;;;;;1.40;54.37;92851.97;4945092;28;20038;-74
2023/11/28 05:06:39;;;;;;;12.27;8.25;;;;;;;1.30;54.33;92877.47;4920039;28;20171;-74
2023/11/28 05:09:06;;;;;;;14.77;9.43;;;;;;;1.18;54.47;92864.78;4920024;28;20044;-71
2023/11/28 05:11:32;;;;;;;14.40;8.80;;;;;;;1.30;54.53;92867.00;4925987;28;20040;-72
2023/11/28 05:13:58;;;;;;;14.02;8.88;;;;;;;1.29;54.74;92875.91;4922843;28;20034;-72
2023/11/28 05:16:23;;;;;;;14.25;9.13;;;;;;;0.82;54.03;92842.59;4938650;28;20043;-73
2023/11/28 05:18:49;;;;;;;14.73;9.20;;;;;;;0.63;54.93;92845.91;4927015;28;20423;-71
2023/11/28 05:21:15;;;;;;;17.23;8.40;;;;;;;0.89;54.81;92843.81;4924699;28;20044;-73
2023/11/28 05:23:40;;;;;;;12.38;9.15;;;;;;;0.88;55.17;92844.13;4924955;28;20039;-73
2023/11/28 05:26:06;;;;;;;14.05;10.20;;;;;;;1.03;54.69;92857.06;4924346;28;20098;-74
2023/11/28 05:28:31;;;;;;;14.93;8.88;;;;;;;0.80;55.11;92841.03;4924712;29;20099;-74
2023/11/28 05:30:59;;;;;;;15.23;9.02;;;;;;;0.82;55.41;92835.53;4926529;29;20044;-73
2023/11/28 05:33:24;;;;;;;13.13;8.05;;;;;;;1.09;55.10;92855.94;4926976;28;20043;-73
2023/11/28 05:35:50;;;;;;;13.65;8.02;;;;;;;1.00;55.11;92847.91;4924002;28;20047;-72
2023/11/28 05:38:15;;;;;;;13.52;8.98;;;;;;;1.07;54.21;92832.69;4925208;28;20040;-73
2023/11/28 05:40:41;;;;;;;14.68;8.73;;;;;;;0.82;54.03;92827.69;4936134;28;20038;-73
2023/11/28 05:43:07;;;;;;;14.40;8.55;;;;;;;0.95;54.84;92828.84;4945179;29;20095;-74
2023/11/28 05:45:33;;;;;;;17.98;9.45;;;;;;;1.01;54.31;92827.75;4930155;28;20130;-73
2023/11/28 05:47:59;;;;;;;22.95;14.02;;;;;;;1.12;54.20;92818.75;4925556;28;20031;-74
2023/11/28 05:50:24;;;;;;;16.83;10.55;;;;;;;1.13;53.76;92825.56;4923123;28;20036;-72
2023/11/28 05:52:51;;;;;;;13.25;7.95;;;;;;;1.15;53.72;92807.69;4924974;28;20035;-72
2023/11/28 05:55:19;;;;;;;11.35;8.23;;;;;;;1.07;54.03;92788.16;4925532;29;20115;-73
2023/11/28 05:57:44;;;;;;;11.38;7.97;;;;;;;1.03;54.04;92775.91;4924942;28;20032;-72
2023/11/28 06:00:12;;;;;;;10.88;8.23;;;;;;;1.11;54.24;92776.06;4922820;28;20384;-72
2023/11/28 06:02:39;;;;;;;11.85;8.02;;;;;;;0.98;54.69;92792.44;4925069;28;20106;-73
2023/11/28 06:05:05;;;;;;;19.10;11.05;;;;;;;0.95;54.79;92755.56;4924810;28;20036;-72
2023/11/28 06:07:31;;;;;;;13.63;9.73;;;;;;;1.08;54.84;92774.00;4926569;29;20032;-73
2023/11/28 06:09:57;;;;;;;18.52;10.90;;;;;;;1.18;55.08;92754.78;4928063;28;20588;-74
2023/11/28 06:12:23;;;;;;;18.35;11.15;;;;;;;1.31;54.93;92756.72;4923145;28;20050;-73
2023/11/28 06:14:48;;;;;;;18.38;11.65;;;;;;;1.28;54.87;92746.03;4924125;28;20098;-73
2023/11/28 06:17:14;;;;;;;19.17;10.65;;;;;;;1.33;54.96;92741.47;4924703;28;21135;-73
2023/11/28 06:19:39;;;;;;;18.05;10.73;;;;;;;1.48;54.77;92769.31;4922915;28;20027;-73
2023/11/28 06:22:05;;;;;;;15.88;10.52;;;;;;;1.51;54.69;92758.31;4925768;29;20555;-72
2023/11/28 06:24:30;;;;;;;16.08;11.23;;;;;;;1.50;54.41;92747.03;4922219;28;20151;-72
2023/11/28 06:26:56;;;;;;;35.75;19.25;;;;;;;1.51;54.59;92725.03;4924733;29;20605;-73
2023/11/28 06:29:22;;;;;;;46.75;25.63;;;;;;;1.38;54.14;92686.41;4921635;28;20044;-73
2023/11/28 06:31:47;;;;;;;17.63;10.90;;;;;;;1.28;54.31;92702.25;4922309;28;20031;-72
2023/11/28 06:34:13;;;;;;;13.32;9.38;;;;;;;1.25;54.65;92676.63;4924906;29;20035;-73
2023/11/28 06:36:38;;;;;;;18.02;12.20;;;;;;;1.22;54.45;92700.78;4924543;28;20972;-73
2023/11/28 06:39:04;;;;;;;19.80;12.82;;;;;;;1.22;54.34;92698.16;4923630;28;20051;-72
2023/11/28 06:41:30;;;;;;;13.60;9.43;;;;;;;1.23;54.47;92720.66;4921711;28;20046;-71
2023/11/28 06:43:55;;;;;;;17.15;12.10;;;;;;;1.21;54.75;92733.25;4922819;28;20023;-72
2023/11/28 06:46:26;;;;;;;21.92;12.35;;;;;;;1.25;54.57;92705.44;4923008;29;20119;-73
2023/11/28 06:48:55;;;;;;;23.05;14.05;;;;;;;1.33;54.14;92720.53;4921828;28;20795;-73
2023/11/28 06:51:21;;;;;;;18.75;12.68;;;;;;;1.30;54.80;92684.44;4920282;28;20036;-72
2023/11/28 06:53:46;;;;;;;16.88;10.63;;;;;;;1.29;53.64;92690.72;4924629;28;20052;-73
2023/11/28 06:56:12;;;;;;;24.48;15.48;;;;;;;1.36;54.01;92674.66;4923422;28;20032;-73
2023/11/28 06:58:38;;;;;;;20.13;13.68;;;;;;;1.38;54.01;92707.34;4921173;29;20023;-73
2023/11/28 07:01:03;;;;;;;23.92;17.00;;;;;;;1.19;54.40;92703.94;4921106;29;20043;-74
2023/11/28 07:03:31;;;;;;;21.10;12.35;;;;;;;1.21;54.85;92691.34;4922324;29;20079;-74
2023/11/28 07:05:57;;;;;;;29.58;15.77;;;;;;;1.24;54.64;92696.03;4922834;28;20036;-73
2023/11/28 07:08:23;;;;;;;24.85;14.45;;;;;;;0.96;55.57;92670.72;4918667;28;20052;-75
2023/11/28 07:10:49;;;;;;;18.20;11.68;;;;;;;0.93;55.55;92658.22;4927457;28;20038;-73
2023/11/28 07:13:14;;;;;;;15.80;10.52;;;;;;;0.95;55.56;92679.63;4920601;29;20102;-72
2023/11/28 07:15:40;;;;;;;19.23;11.65;;;;;;;1.21;55.80;92679.06;4923540;28;20249;-71
2023/11/28 07:18:06;;;;;;;18.83;12.70;;;;;;;1.42;55.30;92655.19;4922126;28;20067;-71
2023/11/28 07:20:32;;;;;;;25.75;14.70;;;;;;;1.51;54.90;92653.50;4924351;28;20446;-74
2023/11/28 07:22:57;;;;;;;18.30;12.00;;;;;;;1.32;55.38;92629.16;4923708;28;20037;-73
2023/11/28 07:25:23;;;;;;;29.02;18.80;;;;;;;1.46;54.80;92624.75;4922594;29;20142;-72
2023/11/28 07:27:48;;;;;;;36.55;19.42;;;;;;;1.22;56.05;92630.84;4921742;28;20062;-74
2023/11/28 07:30:16;;;;;;;27.50;17.58;;;;;;;1.30;55.21;92616.31;4924832;28;20043;-74
2023/11/28 07:32:41;;;;;;;35.03;20.80;;;;;;;1.74;54.83;92641.34;4917240;28;20071;-72
2023/11/28 07:35:07;;;;;;;46.75;21.40;;;;;;;1.47;55.28;92637.53;4921985;28;20130;-74
2023/11/28 07:37:32;;;;;;;25.35;15.98;;;;;;;1.81;54.84;92620.78;4922974;29;20570;-75
2023/11/28 07:39:58;;;;;;;29.70;18.38;;;;;;;1.90;54.43;92608.59;4923063;28;20774;-74
2023/11/28 07:42:23;;;;;;;20.98;14.30;;;;;;;1.83;54.15;92614.19;4922429;28;20622;-74
2023/11/28 07:44:48;;;;;;;16.20;11.02;;;;;;;1.88;54.08;92580.06;4923559;28;20604;-71
2023/11/28 07:47:14;;;;;;;20.08;13.00;;;;;;;1.84;54.19;92601.84;4917842;28;20511;-73
2023/11/28 07:49:39;;;;;;;14.30;10.65;;;;;;;2.09;54.11;92586.50;4923977;28;20871;-74
2023/11/28 07:52:06;;;;;;;15.27;10.85;;;;;;;2.13;53.46;92596.41;4922854;29;20085;-74
2023/11/28 07:54:31;;;;;;;16.20;10.70;;;;;;;1.96;54.17;92576.00;4913939;28;20058;-73
2023/11/28 07:56:57;;;;;;;16.15;10.88;;;;;;;1.90;53.91;92585.00;4912684;29;20039;-74
2023/11/28 07:59:23;;;;;;;19.83;14.35;;;;;;;1.64;54.43;92569.69;4914481;28;20071;-72
2023/11/28 08:01:48;;;;;;;20.40;13.80;;;;;;;1.33;55.06;92573.84;4913910;28;20110;-73
2023/11/28 08:04:14;;;;;;;20.00;13.68;;;;;;;1.44;55.69;92558.75;4917624;29;20483;-74
2023/11/28 08:06:40;;;;;;;24.40;12.02;;;;;;;1.39;55.50;92562.22;4914911;28;20040;-73
2023/11/28 08:09:07;;;;;;;22.73;12.13;;;;;;;1.68;55.08;92570.66;4904888;29;20119;-73
2023/11/28 08:11:34;;;;;;;16.08;11.90;;;;;;;1.74;54.78;92542.53;4912648;28;20142;-75
2023/11/28 08:14:00;;;;;;;13.50;9.00;;;;;;;1.68;54.78;92575.91;4915954;28;20095;-73
2023/11/28 08:16:25;;;;;;;11.95;9.15;;;;;;;1.83;54.87;92571.47;4910963;29;20035;-73
2023/11/28 08:18:51;;;;;;;15.50;8.02;;;;;;;0.64;56.02;92541.31;4912079;28;20593;-73
2023/11/28 08:21:16;;;;;;;14.10;8.35;;;;;;;1.03;56.87;92554.16;4914655;28;20566;-74
2023/11/28 08:23:43;;;;;;;10.25;7.53;;;;;;;1.12;56.70;92552.44;4912804;28;20098;-74
2023/11/28 08:26:10;;;;;;;8.15;4.78;;;;;;;1.35;56.41;92561.25;4928061;28;20123;-74
2023/11/28 08:28:36;;;;;;;6.28;3.92;;;;;;;1.55;55.97;92555.69;4925420;29;20161;-74
2023/11/28 08:31:01;;;;;;;6.47;4.28;;;;;;;1.25;56.60;92540.44;4921068;28;20443;-73
2023/11/28 08:33:26;;;;;;;28.05;5.38;;;;;;;1.59;56.81;92543.56;4912875;28;20042;-74
2023/11/28 08:35:52;;;;;;;8.95;6.60;;;;;;;1.80;56.13;92540.59;4906697;28;20470;-74
2023/11/28 08:38:17;;;;;;;13.13;9.55;;;;;;;1.36;57.46;92541.84;4903764;28;20044;-75
2023/11/28 08:40:43;;;;;;;13.98;9.90;;;;;;;1.58;57.37;92528.13;4914908;28;20943;-72
2023/11/28 08:43:09;;;;;;;18.60;12.13;;;;;;;1.78;56.79;92537.47;4911491;29;20027;-73
2023/11/28 08:45:34;;;;;;;19.92;12.73;;;;;;;1.95;56.03;92524.63;4913322;29;20098;-74
2023/11/28 08:48:00;;;;;;;17.95;11.93;;;;;;;2.26;55.40;92522.97;4913890;29;20047;-72
2023/11/28 08:50:25;;;;;;;18.48;12.93;;;;;;;2.20;55.35;92524.16;4911925;28;20042;-71
2023/11/28 08:52:50;;;;;;;16.95;11.80;;;;;;;2.31;54.72;92520.22;4914974;28;20028;-72
2023/11/28 08:55:16;;;;;;;14.48;11.38;;;;;;;2.10;53.89;92521.72;4911628;29;20074;-72
2023/11/28 08:57:42;;;;;;;16.83;12.55;;;;;;;2.39;54.18;92531.91;4907606;29;20048;-74
2023/11/28 09:00:08;;;;;;;16.20;12.10;;;;;;;2.59;54.21;92510.50;4913124;28;20326;-74
2023/11/28 09:02:34;;;;;;;18.88;11.95;;;;;;;2.49;53.39;92490.50;4908221;29;20528;-71
2023/11/28 09:05:00;;;;;;;25.17;15.55;;;;;;;2.64;53.08;92494.66;4895468;29;20047;-71
2023/11/28 09:07:25;;;;;;;15.27;11.98;;;;;;;2.88;52.77;92489.13;4913923;29;20550;-75
2023/11/28 09:09:51;;;;;;;14.40;11.25;;;;;;;2.95;51.84;92481.59;4913532;28;20508;-73
2023/11/28 09:12:17;;;;;;;21.05;14.38;;;;;;;2.74;52.35;92455.06;4913908;28;20516;-71
2023/11/28 09:14:44;;;;;;;36.00;18.23;;;;;;;2.93;52.35;92439.13;4910585;28;20083;-72
2023/11/28 09:17:10;;;;;;;22.50;11.57;;;;;;;2.91;52.52;92470.91;4911972;28;20039;-74
2023/11/28 09:19:35;;;;;;;24.45;12.98;;;;;;;3.02;52.71;92457.56;4911944;29;20926;-73
2023/11/28 09:22:02;;;;;;;16.13;9.48;;;;;;;3.08;52.40;92472.13;4912601;28;20047;-72
2023/11/28 09:24:31;;;;;;;11.75;7.50;;;;;;;3.14;52.27;92423.63;4912693;28;20035;-74
2023/11/28 09:26:58;;;;;;;10.57;7.93;;;;;;;3.34;52.82;92452.81;4915372;28;20047;-72
2023/11/28 09:29:23;;;;;;;13.23;8.32;;;;;;;3.49;52.22;92433.25;4910753;28;20047;-71
2023/11/28 09:31:49;;;;;;;11.90;7.90;;;;;;;3.29;53.01;92423.25;4913662;28;20042;-74
2023/11/28 09:34:16;;;;;;;9.93;7.78;;;;;;;3.54;52.78;92442.88;4912129;29;20063;-71
2023/11/28 09:36:41;;;;;;;23.13;13.15;;;;;;;2.85;53.21;92410.94;4914067;28;20130;-74
2023/11/28 09:39:09;;;;;;;19.33;12.90;;;;;;;2.63;54.54;92429.31;4911360;29;20043;-73
2023/11/28 09:41:38;;;;;;;22.85;14.98;;;;;;;2.66;55.35;92420.84;4911220;28;20283;-73
2023/11/28 09:44:05;;;;;;;19.20;13.80;;;;;;;2.93;55.31;92433.88;4913217;28;20212;-75
2023/11/28 09:46:31;;;;;;;19.67;14.13;;;;;;;2.90;53.83;92403.72;4913741;29;20059;-74
2023/11/28 09:49:00;;;;;;;18.23;13.88;;;;;;;2.87;54.73;92393.03;4912977;28;20039;-73
2023/11/28 09:51:29;;;;;;;17.20;12.65;;;;;;;2.81;54.78;92402.09;4908526;28;20397;-75
2023/11/28 09:53:58;;;;;;;12.85;8.45;;;;;;;2.75;54.01;92382.28;4914762;28;20078;-74
2023/11/28 09:56:25;;;;;;;12.23;8.45;;;;;;;3.09;54.14;92366.75;4916371;28;20032;-75
2023/11/28 09:58:58;;;;;;;9.07;5.65;;;;;;;3.17;52.99;92384.44;4902912;28;20826;-74
2023/11/28 10:01:25;;;;;;;7.63;5.85;;;;;;;2.96;53.52;92367.59;4916247;29;20038;-74
2023/11/28 10:03:52;;;;;;;9.85;7.13;;;;;;;3.27;53.62;92363.16;4913579;28;20554;-74
2023/11/28 10:06:20;;;;;;;13.57;8.20;;;;;;;2.84;54.07;92367.41;4917063;28;20534;-73
2023/11/28 10:08:49;;;;;;;11.43;9.25;;;;;;;2.75;55.49;92348.94;4914692;28;20123;-74
2023/11/28 10:11:16;;;;;;;20.10;10.05;;;;;;;3.09;54.79;92335.22;4917571;28;20036;-73
2023/11/28 10:13:46;;;;;;;8.65;6.57;;;;;;;3.23;53.62;92333.28;4915785;28;20577;-74
2023/11/28 10:16:13;;;;;;;10.68;6.72;;;;;;;3.17;53.50;92321.38;4915059;29;21627;-73
2023/11/28 10:18:47;;;;;;;10.52;7.07;;;;;;;3.02;54.27;92327.03;4914157;28;20570;-74
2023/11/28 10:21:15;;;;;;;10.38;7.95;;;;;;;2.79;54.22;92309.75;4917121;28;20036;-74
2023/11/28 10:23:47;;;;;;;16.85;9.90;;;;;;;2.39;55.05;92291.31;4915229;28;20751;-75
2023/11/28 10:26:13;;;;;;;13.50;8.10;;;;;;;2.18;55.87;92266.63;4916145;28;20036;-75
2023/11/28 10:28:38;;;;;;;15.73;9.60;;;;;;;2.73;55.58;92316.22;4913336;29;20047;-71
2023/11/28 10:31:07;;;;;;;7.85;5.85;;;;;;;2.96;54.43;92289.59;4914360;29;20071;-71
2023/11/28 10:33:33;;;;;;;8.10;4.65;;;;;;;2.99;54.58;92256.69;4921350;28;20604;-71
2023/11/28 10:35:59;;;;;;;6.18;3.80;;;;;;;3.46;54.18;92270.16;4927994;28;20039;-74
2023/11/28 10:38:27;;;;;;;4.68;3.60;;;;;;;3.51;53.62;92241.88;4921391;28;20046;-73
2023/11/28 10:40:53;;;;;;;4.00;3.08;;;;;;;3.65;53.00;92237.25;4927523;28;20435;-72
2023/11/28 10:43:20;;;;;;;4.60;3.25;;;;;;;3.82;52.40;92257.50;4921907;29;20038;-74
2023/11/28 10:45:46;;;;;;;3.35;3.05;;;;;;;3.66;53.08;92243.28;4920290;28;20036;-74
2023/11/28 10:48:12;;;;;;;4.75;3.25;;;;;;;3.78;53.09;92240.81;4924168;28;20051;-74
2023/11/28 10:50:41;;;;;;;3.67;2.90;;;;;;;3.70;52.69;92217.94;4919738;28;20036;-74
2023/11/28 10:53:10;;;;;;;5.85;3.15;;;;;;;3.75;52.80;92202.78;4922569;28;20265;-73
2023/11/28 10:56:02;;;;;;;5.43;3.20;;;;;;;3.13;53.77;92149.69;4921634;29;20522;-74
2023/11/28 10:58:28;;;;;;;5.93;4.22;;;;;;;3.26;54.10;92188.19;4920207;29;20608;-73
2023/11/28 11:01:01;;;;;;;6.25;4.30;;;;;;;3.13;54.42;92162.84;4921906;28;20042;-75
2023/11/28 11:03:27;;;;;;;5.47;3.97;;;;;;;3.09;55.70;92161.09;4920743;28;20048;-73
2023/11/28 11:05:54;;;;;;;6.47;4.00;;;;;;;3.21;55.09;92148.94;4921325;28;20070;-74
2023/11/28 11:08:21;;;;;;;4.40;4.00;;;;;;;3.15;55.45;92129.13;4919893;28;20039;-75
2023/11/28 11:10:47;;;;;;;8.43;4.35;;;;;;;3.07;55.93;92137.78;4924689;28;20032;-73
2023/11/28 11:13:37;;;;;;;9.02;5.38;;;;;;;2.99;56.21;92148.28;4920923;29;20118;-74
2023/11/28 11:16:29;;;;;;;8.68;6.90;;;;;;;3.45;55.46;92158.22;4924889;28;20068;-74
2023/11/28 11:18:56;;;;;;;12.93;7.88;;;;;;;3.41;55.41;92126.53;4924309;28;20043;-74
2023/11/28 11:21:28;;;;;;;9.27;6.13;;;;;;;3.76;55.27;92143.06;4923908;28;20066;-74
2023/11/28 11:23:54;;;;;;;6.20;4.53;;;;;;;3.94;53.64;92136.72;4938480;28;20047;-73
2023/11/28 11:26:50;;;;;;;6.68;5.25;;;;;;;4.13;53.58;92110.81;4934340;29;20328;-73
2023/11/28 11:29:24;;;;;;;10.77;6.90;;;;;;;4.28;53.29;92112.19;4911892;28;20058;-74
2023/11/28 11:31:51;;;;;;;9.65;7.13;;;;;;;4.41;53.08;92092.78;4935902;28;20035;-72
2023/11/28 11:34:36;;;;;;;10.68;6.60;;;;;;;4.38;52.66;92087.41;4933529;29;20031;-73